Time,TemperatureF,DewpointF,PressureIn,WindDirection,WindDirectionDegrees,WindSpeedMPH,WindSpeedGustMPH,Humidity,HourlyPrecipIn,Conditions,Clouds,dailyrainin,SolarRadiationWatts/m^2,SoftwareType,DateUTC
2013-01-04 00:04:00,14.3,11.1,30.22,SW,220,3.0,5.0,87,0.00,,,0.00,0,Wunderground v.1.15,2013-01-04 06:04:00,
2013-01-04 00:10:00,14.3,11.1,30.22,SW,223,5.0,5.0,87,0.00,,,0.00,0,Wunderground v.1.15,2013-01-04 06:10:00,
2013-01-04 00:15:00,14.3,11.1,30.22,SW,229,4.0,6.0,87,0.00,,,0.00,0,Wunderground v.1.15,2013-01-04 06:15:00,
2013-01-04 00:20:00,14.4,11.2,30.22,SW,222,5.0,5.0,87,0.00,,,0.00,0,Wunderground v.1.15,2013-01-04 06:20:00,
2013-01-04 00:25:00,14.1,10.9,30.22,SW,220,5.0,7.0,87,0.00,,,0.00,0,Wunderground v.1.15,2013-01-04 06:25:00,
2013-01-04 00:31:00,14.1,10.9,30.21,SW,229,6.0,6.0,87,0.00,,,0.00,0,Wunderground v.1.15,2013-01-04 06:31:00,
2013-01-04 00:36:00,14.0,10.8,30.21,SW,223,4.0,6.0,87,0.00,,,0.00,0,Wunderground v.1.15,2013-01-04 06:36:00,
2013-01-04 00:41:00,13.6,10.5,30.21,SW,217,3.0,5.0,87,0.00,,,0.00,0,Wunderground v.1.15,2013-01-04 06:41:00,
2013-01-04 00:46:00,13.7,10.5,30.20,SW,215,5.0,7.0,87,0.00,,,0.00,0,Wunderground v.1.15,2013-01-04 06:46:00,
2013-01-04 00:51:00,14.1,10.9,30.20,SW,219,5.0,5.0,87,0.00,,,0.00,0,Wunderground v.1.15,2013-01-04 06:51:00,
2013-01-04 00:56:00,14.0,10.8,30.20,SW,220,5.0,5.0,87,0.00,,,0.00,0,Wunderground v.1.15,2013-01-04 06:56:00,
2013-01-04 01:01:00,14.0,10.8,30.20,SW,224,4.0,5.0,87,0.00,,,0.00,0,Wunderground v.1.15,2013-01-04 07:01:00,
2013-01-04 01:06:00,13.9,10.7,30.20,SW,221,6.0,6.0,87,0.00,,,0.00,0,Wunderground v.1.15,2013-01-04 07:06:00,
2013-01-04 01:11:00,13.9,10.7,30.19,SW,224,6.0,7.0,87,0.00,,,0.00,0,Wunderground v.1.15,2013-01-04 07:11:00,
2013-01-04 01:16:00,14.1,10.9,30.19,SW,224,7.0,7.0,87,0.00,,,0.00,0,Wunderground v.1.15,2013-01-04 07:16:00,
2013-01-04 01:21:00,14.1,10.9,30.19,SW,221,6.0,7.0,87,0.00,,,0.00,0,Wunderground v.1.15,2013-01-04 07:21:00,
2013-01-04 01:26:00,13.6,10.2,30.19,SW,217,6.0,7.0,86,0.00,,,0.00,0,Wunderground v.1.15,2013-01-04 07:26:00,
2013-01-04 01:31:00,13.3,10.2,30.19,SW,221,5.0,5.0,87,0.00,,,0.00,0,Wunderground v.1.15,2013-01-04 07:31:00,
2013-01-04 01:37:00,13.0,9.6,30.19,SW,218,6.0,6.0,86,0.00,,,0.00,0,Wunderground v.1.15,2013-01-04 07:37:00,
2013-01-04 01:42:00,12.8,9.7,30.19,SW,228,7.0,7.0,87,0.00,,,0.00,0,Wunderground v.1.15,2013-01-04 07:42:00,
2013-01-04 01:48:00,12.5,9.4,30.19,SW,221,5.0,7.0,87,0.00,,,0.00,0,Wunderground v.1.15,2013-01-04 07:48:00,
2013-01-04 01:53:00,11.7,8.3,30.19,SW,220,4.0,5.0,86,0.00,,,0.00,0,Wunderground v.1.15,2013-01-04 07:53:00,
2013-01-04 01:59:00,12.0,8.9,30.18,SW,220,6.0,6.0,87,0.00,,,0.00,0,Wunderground v.1.15,2013-01-04 07:59:00,
2013-01-04 02:04:00,12.1,9.0,30.19,SW,220,2.0,6.0,87,0.00,,,0.00,0,Wunderground v.1.15,2013-01-04 08:04:00,
2013-01-04 02:09:00,12.0,8.9,30.19,SW,220,5.0,6.0,87,0.00,,,0.00,0,Wunderground v.1.15,2013-01-04 08:09:00,
2013-01-04 02:14:00,12.0,8.9,30.18,SW,220,3.0,5.0,87,0.00,,,0.00,0,Wunderground v.1.15,2013-01-04 08:14:00,
2013-01-04 02:19:00,11.2,8.1,30.19,SW,220,4.0,5.0,87,0.00,,,0.00,0,Wunderground v.1.15,2013-01-04 08:19:00,
2013-01-04 02:24:00,9.9,6.6,30.19,SW,220,3.0,4.0,86,0.00,,,0.00,0,Wunderground v.1.15,2013-01-04 08:24:00,
2013-01-04 02:29:00,9.6,6.3,30.19,SW,219,6.0,6.0,86,0.00,,,0.00,0,Wunderground v.1.15,2013-01-04 08:29:00,
2013-01-04 02:34:00,9.8,6.7,30.18,SW,219,5.0,6.0,87,0.00,,,0.00,0,Wunderground v.1.15,2013-01-04 08:34:00,
2013-01-04 02:39:00,10.0,6.9,30.18,SW,219,4.0,6.0,87,0.00,,,0.00,0,Wunderground v.1.15,2013-01-04 08:39:00,
2013-01-04 02:44:00,10.0,6.9,30.18,SW,218,4.0,6.0,87,0.00,,,0.00,0,Wunderground v.1.15,2013-01-04 08:44:00,
2013-01-04 02:49:00,10.1,7.0,30.19,SW,220,3.0,6.0,87,0.00,,,0.00,0,Wunderground v.1.15,2013-01-04 08:49:00,
2013-01-04 02:54:00,10.0,6.9,30.19,SW,220,3.0,5.0,87,0.00,,,0.00,0,Wunderground v.1.15,2013-01-04 08:54:00,
2013-01-04 02:59:00,9.9,6.8,30.19,SW,220,4.0,6.0,87,0.00,,,0.00,0,Wunderground v.1.15,2013-01-04 08:59:00,
2013-01-04 03:04:00,9.6,6.5,30.19,SW,220,3.0,4.0,87,0.00,,,0.00,0,Wunderground v.1.15,2013-01-04 09:04:00,
2013-01-04 03:09:00,9.8,6.7,30.18,SW,220,3.0,5.0,87,0.00,,,0.00,0,Wunderground v.1.15,2013-01-04 09:09:00,
2013-01-04 03:14:00,9.8,6.7,30.19,SW,220,4.0,6.0,87,0.00,,,0.00,0,Wunderground v.1.15,2013-01-04 09:14:00,
2013-01-04 03:19:00,9.5,6.4,30.18,SW,220,3.0,6.0,87,0.00,,,0.00,0,Wunderground v.1.15,2013-01-04 09:19:00,
2013-01-04 03:24:00,9.2,6.1,30.18,SW,220,3.0,5.0,87,0.00,,,0.00,0,Wunderground v.1.15,2013-01-04 09:24:00,
2013-01-04 03:29:00,9.2,6.1,30.18,SW,220,3.0,5.0,87,0.00,,,0.00,0,Wunderground v.1.15,2013-01-04 09:29:00,
2013-01-04 03:34:00,9.1,6.0,30.18,SW,220,3.0,4.0,87,0.00,,,0.00,0,Wunderground v.1.15,2013-01-04 09:34:00,
2013-01-04 03:39:00,9.1,6.0,30.18,SW,220,4.0,5.0,87,0.00,,,0.00,0,Wunderground v.1.15,2013-01-04 09:39:00,
2013-01-04 03:44:00,9.0,5.9,30.18,SSW,210,7.0,7.0,87,0.00,,,0.00,0,Wunderground v.1.15,2013-01-04 09:44:00,
2013-01-04 03:49:00,9.2,6.1,30.18,SSW,210,4.0,7.0,87,0.00,,,0.00,0,Wunderground v.1.15,2013-01-04 09:49:00,
2013-01-04 03:54:00,9.5,6.7,30.18,SSW,212,6.0,7.0,88,0.00,,,0.00,0,Wunderground v.1.15,2013-01-04 09:54:00,
2013-01-04 03:59:00,9.8,7.0,30.18,SSW,207,5.0,7.0,88,0.00,,,0.00,0,Wunderground v.1.15,2013-01-04 09:59:00,
2013-01-04 04:04:00,9.9,6.8,30.18,SSW,209,6.0,6.0,87,0.00,,,0.00,0,Wunderground v.1.15,2013-01-04 10:04:00,
2013-01-04 04:09:00,9.9,6.8,30.18,SSW,210,5.0,6.0,87,0.00,,,0.00,0,Wunderground v.1.15,2013-01-04 10:09:00,
2013-01-04 04:14:00,9.6,6.5,30.18,SSW,211,4.0,6.0,87,0.00,,,0.00,0,Wunderground v.1.15,2013-01-04 10:14:00,
2013-01-04 04:19:00,9.4,6.3,30.18,SSW,211,4.0,6.0,87,0.00,,,0.00,0,Wunderground v.1.15,2013-01-04 10:19:00,
2013-01-04 04:24:00,9.1,6.0,30.17,SSW,213,3.0,6.0,87,0.00,,,0.00,0,Wunderground v.1.15,2013-01-04 10:24:00,
2013-01-04 04:29:00,9.1,6.0,30.17,SSW,213,2.0,6.0,87,0.00,,,0.00,0,Wunderground v.1.15,2013-01-04 10:29:00,
2013-01-04 04:34:00,8.7,5.4,30.17,SSW,213,3.0,4.0,86,0.00,,,0.00,0,Wunderground v.1.15,2013-01-04 10:34:00,
2013-01-04 04:39:00,8.5,5.4,30.17,SSW,213,3.0,5.0,87,0.00,,,0.00,0,Wunderground v.1.15,2013-01-04 10:39:00,
2013-01-04 04:44:00,8.5,5.4,30.17,SSW,213,3.0,4.0,87,0.00,,,0.00,0,Wunderground v.1.15,2013-01-04 10:44:00,
2013-01-04 04:49:00,8.6,5.5,30.17,SSW,213,4.0,5.0,87,0.00,,,0.00,0,Wunderground v.1.15,2013-01-04 10:49:00,
2013-01-04 04:54:00,8.6,5.5,30.17,SSW,213,5.0,5.0,87,0.00,,,0.00,0,Wunderground v.1.15,2013-01-04 10:54:00,
2013-01-04 04:59:00,8.6,5.5,30.17,SSW,213,3.0,7.0,87,0.00,,,0.00,0,Wunderground v.1.15,2013-01-04 10:59:00,
2013-01-04 05:04:00,8.7,5.6,30.17,SW,217,3.0,8.0,87,0.00,,,0.00,0,Wunderground v.1.15,2013-01-04 11:04:00,
2013-01-04 05:09:00,9.0,5.9,30.17,SW,217,6.0,8.0,87,0.00,,,0.00,0,Wunderground v.1.15,2013-01-04 11:09:00,
2013-01-04 05:14:00,9.2,5.9,30.17,SW,215,3.0,7.0,86,0.00,,,0.00,0,Wunderground v.1.15,2013-01-04 11:14:00,
2013-01-04 05:19:00,9.4,6.1,30.17,SW,217,3.0,7.0,86,0.00,,,0.00,0,Wunderground v.1.15,2013-01-04 11:19:00,
2013-01-04 05:24:00,9.7,6.4,30.17,SW,217,4.0,6.0,86,0.00,,,0.00,0,Wunderground v.1.15,2013-01-04 11:24:00,
2013-01-04 05:29:00,9.7,6.4,30.17,SW,217,3.0,7.0,86,0.00,,,0.00,0,Wunderground v.1.15,2013-01-04 11:29:00,
2013-01-04 05:34:00,9.7,6.4,30.17,SW,217,6.0,7.0,86,0.00,,,0.00,0,Wunderground v.1.15,2013-01-04 11:34:00,
2013-01-04 05:39:00,9.5,5.9,30.17,SW,217,3.0,7.0,85,0.00,,,0.00,0,Wunderground v.1.15,2013-01-04 11:39:00,
2013-01-04 05:44:00,8.9,5.3,30.17,SW,217,2.0,4.0,85,0.00,,,0.00,0,Wunderground v.1.15,2013-01-04 11:44:00,
2013-01-04 05:49:00,8.5,4.9,30.17,SW,217,3.0,4.0,85,0.00,,,0.00,0,Wunderground v.1.15,2013-01-04 11:49:00,
2013-01-04 05:55:00,8.1,4.5,30.17,SW,217,2.0,3.0,85,0.00,,,0.00,0,Wunderground v.1.15,2013-01-04 11:55:00,
2013-01-04 06:00:00,8.1,4.5,30.17,SW,217,1.0,2.0,85,0.00,,,0.00,0,Wunderground v.1.15,2013-01-04 12:00:00,
2013-01-04 06:05:00,8.2,4.6,30.17,SW,217,3.0,3.0,85,0.00,,,0.00,0,Wunderground v.1.15,2013-01-04 12:05:00,
2013-01-04 06:10:00,8.1,4.5,30.17,SW,217,2.0,2.0,85,0.00,,,0.00,0,Wunderground v.1.15,2013-01-04 12:10:00,
2013-01-04 06:15:00,8.2,4.9,30.17,SW,217,2.0,3.0,86,0.00,,,0.00,0,Wunderground v.1.15,2013-01-04 12:15:00,
2013-01-04 06:20:00,8.1,4.5,30.17,SW,217,2.0,2.0,85,0.00,,,0.00,0,Wunderground v.1.15,2013-01-04 12:20:00,
2013-01-04 06:25:00,7.9,4.3,30.17,SW,217,3.0,4.0,85,0.00,,,0.00,0,Wunderground v.1.15,2013-01-04 12:25:00,
2013-01-04 06:30:00,7.8,4.5,30.17,SW,217,4.0,4.0,86,0.00,,,0.00,0,Wunderground v.1.15,2013-01-04 12:30:00,
2013-01-04 06:35:00,7.8,4.5,30.17,SW,217,4.0,4.0,86,0.00,,,0.00,0,Wunderground v.1.15,2013-01-04 12:35:00,
2013-01-04 06:40:00,7.6,4.3,30.17,SW,217,4.0,4.0,86,0.00,,,0.00,0,Wunderground v.1.15,2013-01-04 12:40:00,
2013-01-04 06:45:00,7.7,4.4,30.17,SW,217,3.0,4.0,86,0.00,,,0.00,0,Wunderground v.1.15,2013-01-04 12:45:00,
2013-01-04 06:50:00,7.6,4.3,30.17,SW,217,3.0,3.0,86,0.00,,,0.00,0,Wunderground v.1.15,2013-01-04 12:50:00,
2013-01-04 06:55:00,7.5,4.2,30.17,SW,217,4.0,4.0,86,0.00,,,0.00,0,Wunderground v.1.15,2013-01-04 12:55:00,
2013-01-04 07:00:00,7.3,3.7,30.17,SW,217,3.0,3.0,85,0.00,,,0.00,0,Wunderground v.1.15,2013-01-04 13:00:00,
2013-01-04 07:05:00,7.5,4.2,30.18,SW,217,3.0,4.0,86,0.00,,,0.00,0,Wunderground v.1.15,2013-01-04 13:05:00,
2013-01-04 07:10:00,7.7,4.4,30.18,SW,217,3.0,3.0,86,0.00,,,0.00,0,Wunderground v.1.15,2013-01-04 13:10:00,
2013-01-04 07:15:00,7.7,4.4,30.18,SW,217,1.0,3.0,86,0.00,,,0.00,0,Wunderground v.1.15,2013-01-04 13:15:00,
2013-01-04 07:20:00,7.5,3.9,30.18,SW,217,5.0,5.0,85,0.00,,,0.00,0,Wunderground v.1.15,2013-01-04 13:20:00,
2013-01-04 07:25:00,7.2,3.6,30.18,SW,217,4.0,5.0,85,0.00,,,0.00,0,Wunderground v.1.15,2013-01-04 13:25:00,
2013-01-04 07:30:00,7.0,3.4,30.18,SW,217,5.0,5.0,85,0.00,,,0.00,0,Wunderground v.1.15,2013-01-04 13:30:00,
2013-01-04 07:35:00,6.9,3.3,30.17,SW,215,6.0,7.0,85,0.00,,,0.00,0,Wunderground v.1.15,2013-01-04 13:35:00,
2013-01-04 07:40:00,7.2,3.6,30.18,SSW,213,2.0,6.0,85,0.00,,,0.00,0,Wunderground v.1.15,2013-01-04 13:40:00,
2013-01-04 07:45:00,7.6,4.3,30.18,SSW,211,6.0,7.0,86,0.00,,,0.00,0,Wunderground v.1.15,2013-01-04 13:45:00,
2013-01-04 07:50:00,7.8,4.2,30.18,SSW,211,3.0,4.0,85,0.00,,,0.00,0,Wunderground v.1.15,2013-01-04 13:50:00,
2013-01-04 07:55:00,8.0,4.4,30.18,SSW,211,3.0,4.0,85,0.00,,,0.00,0,Wunderground v.1.15,2013-01-04 13:55:00,
2013-01-04 08:00:00,8.0,4.4,30.18,SSW,211,2.0,3.0,85,0.00,,,0.00,0,Wunderground v.1.15,2013-01-04 14:00:00,
2013-01-04 08:06:00,8.3,4.7,30.18,SSW,211,3.0,4.0,85,0.00,,,0.00,5,Wunderground v.1.15,2013-01-04 14:06:00,
2013-01-04 08:11:00,8.2,4.6,30.18,SSW,211,3.0,4.0,85,0.00,,,0.00,9,Wunderground v.1.15,2013-01-04 14:11:00,
2013-01-04 08:16:00,8.2,4.6,30.18,SSW,211,3.0,4.0,85,0.00,,,0.00,12,Wunderground v.1.15,2013-01-04 14:16:00,
2013-01-04 08:22:00,8.1,4.3,30.18,SSW,211,3.0,4.0,84,0.00,,,0.00,14,Wunderground v.1.15,2013-01-04 14:22:00,
2013-01-04 08:27:00,8.4,4.8,30.18,SSW,211,2.0,5.0,85,0.00,,,0.00,19,Wunderground v.1.15,2013-01-04 14:27:00,
2013-01-04 08:32:00,9.0,5.4,30.18,SSW,211,3.0,5.0,85,0.00,,,0.00,25,Wunderground v.1.15,2013-01-04 14:32:00,
2013-01-04 08:48:00,10.0,6.1,30.19,SSW,211,4.0,4.0,84,0.00,,,0.00,56,Wunderground v.1.15,2013-01-04 14:48:00,
2013-01-04 08:53:00,10.4,6.5,30.18,SSW,211,3.0,4.0,84,0.00,,,0.00,67,Wunderground v.1.15,2013-01-04 14:53:00,
2013-01-04 08:58:00,10.8,6.9,30.19,SSW,211,4.0,5.0,84,0.00,,,0.00,79,Wunderground v.1.15,2013-01-04 14:58:00,
2013-01-04 09:03:00,11.1,6.9,30.18,SSW,211,3.0,4.0,83,0.00,,,0.00,90,Wunderground v.1.15,2013-01-04 15:03:00,
2013-01-04 09:08:00,11.9,7.7,30.18,SSW,211,2.0,4.0,83,0.00,,,0.00,100,Wunderground v.1.15,2013-01-04 15:08:00,
2013-01-04 09:13:00,12.7,8.5,30.18,SSW,211,6.0,6.0,83,0.00,,,0.00,114,Wunderground v.1.15,2013-01-04 15:13:00,
2013-01-04 09:18:00,13.2,8.5,30.18,SSW,211,4.0,6.0,81,0.00,,,0.00,128,Wunderground v.1.15,2013-01-04 15:18:00,
2013-01-04 09:23:00,13.6,8.9,30.18,SSW,211,2.0,4.0,81,0.00,,,0.00,142,Wunderground v.1.15,2013-01-04 15:23:00,
2013-01-04 09:28:00,14.0,9.2,30.18,SSW,211,4.0,5.0,81,0.00,,,0.00,156,Wunderground v.1.15,2013-01-04 15:28:00,
2013-01-04 09:33:00,14.6,9.6,30.18,SSW,211,3.0,5.0,80,0.00,,,0.00,169,Wunderground v.1.15,2013-01-04 15:33:00,
2013-01-04 09:38:00,15.5,10.1,30.19,SSW,211,2.0,5.0,79,0.00,,,0.00,185,Wunderground v.1.15,2013-01-04 15:38:00,
2013-01-04 09:43:00,16.0,10.3,30.19,SSW,211,4.0,6.0,78,0.00,,,0.00,200,Wunderground v.1.15,2013-01-04 15:43:00,
2013-01-04 09:48:00,16.7,10.7,30.19,SSW,211,2.0,6.0,77,0.00,,,0.00,216,Wunderground v.1.15,2013-01-04 15:48:00,
2013-01-04 09:53:00,17.2,11.2,30.19,SSW,211,3.0,4.0,77,0.00,,,0.00,234,Wunderground v.1.15,2013-01-04 15:53:00,
2013-01-04 09:58:00,18.0,11.7,30.20,SSW,211,1.0,4.0,76,0.00,,,0.00,250,Wunderground v.1.15,2013-01-04 15:58:00,
2013-01-04 10:02:00,18.8,12.5,30.20,SSW,211,2.0,3.0,76,0.00,,,0.00,260,Wunderground v.1.15,2013-01-04 16:02:00,
2013-01-04 10:08:00,19.3,12.7,30.20,SSW,211,2.0,4.0,75,0.00,,,0.00,271,Wunderground v.1.15,2013-01-04 16:08:00,
2013-01-04 10:13:00,20.0,13.0,30.20,SSW,213,2.0,4.0,74,0.00,,,0.00,283,Wunderground v.1.15,2013-01-04 16:13:00,
2013-01-04 10:18:00,20.8,13.5,30.19,SSW,213,2.0,4.0,73,0.00,,,0.00,294,Wunderground v.1.15,2013-01-04 16:18:00,
2013-01-04 10:23:00,21.0,13.4,30.19,SSW,213,5.0,5.0,72,0.00,,,0.00,304,Wunderground v.1.15,2013-01-04 16:23:00,
2013-01-04 10:28:00,21.2,13.6,30.19,SSW,213,4.0,6.0,72,0.00,,,0.00,316,Wunderground v.1.15,2013-01-04 16:28:00,
2013-01-04 10:33:00,21.8,14.2,30.19,SSW,213,3.0,4.0,72,0.00,,,0.00,330,Wunderground v.1.15,2013-01-04 16:33:00,
2013-01-04 10:38:00,22.5,14.5,30.19,SSW,213,3.0,4.0,71,0.00,,,0.00,341,Wunderground v.1.15,2013-01-04 16:38:00,
2013-01-04 10:43:00,23.3,15.3,30.19,SSW,213,1.0,4.0,71,0.00,,,0.00,352,Wunderground v.1.15,2013-01-04 16:43:00,
2013-01-04 10:48:00,24.3,15.9,30.19,SSW,213,3.0,4.0,70,0.00,,,0.00,364,Wunderground v.1.15,2013-01-04 16:48:00,
2013-01-04 10:52:00,24.5,15.8,30.19,SSW,213,4.0,5.0,69,0.00,,,0.00,374,Wunderground v.1.15,2013-01-04 16:52:00,
2013-01-04 10:57:00,25.2,16.5,30.19,SW,217,4.0,5.0,69,0.00,,,0.00,385,Wunderground v.1.15,2013-01-04 16:57:00,
2013-01-04 11:02:00,26.0,16.5,30.19,SW,223,3.0,5.0,67,0.00,,,0.00,394,Wunderground v.1.15,2013-01-04 17:02:00,
2013-01-04 11:07:00,26.1,16.3,30.19,SW,223,3.0,7.0,66,0.00,,,0.00,399,Wunderground v.1.15,2013-01-04 17:07:00,
2013-01-04 11:12:00,27.0,17.5,30.19,SW,223,4.0,5.0,67,0.00,,,0.00,406,Wunderground v.1.15,2013-01-04 17:12:00,
2013-01-04 11:17:00,27.5,17.3,30.19,SW,223,2.0,5.0,65,0.00,,,0.00,413,Wunderground v.1.15,2013-01-04 17:17:00,
2013-01-04 11:22:00,28.0,17.7,30.19,SW,223,4.0,5.0,65,0.00,,,0.00,418,Wunderground v.1.15,2013-01-04 17:22:00,
2013-01-04 11:27:00,28.5,17.9,30.19,SW,223,3.0,5.0,64,0.00,,,0.00,425,Wunderground v.1.15,2013-01-04 17:27:00,
2013-01-04 11:32:00,29.2,18.5,30.18,SW,223,4.0,5.0,64,0.00,,,0.00,431,Wunderground v.1.15,2013-01-04 17:32:00,
2013-01-04 11:37:00,29.4,18.0,30.18,SW,223,1.0,6.0,62,0.00,,,0.00,436,Wunderground v.1.15,2013-01-04 17:37:00,
2013-01-04 11:42:00,29.9,18.5,30.18,SW,223,4.0,5.0,62,0.00,,,0.00,439,Wunderground v.1.15,2013-01-04 17:42:00,
2013-01-04 11:47:00,30.4,18.5,30.18,SW,223,4.0,5.0,61,0.00,,,0.00,443,Wunderground v.1.15,2013-01-04 17:47:00,
2013-01-04 11:52:00,30.8,19.3,30.18,SW,223,4.0,6.0,62,0.00,,,0.00,448,Wunderground v.1.15,2013-01-04 17:52:00,
2013-01-04 11:57:00,31.8,19.5,30.17,SW,223,3.0,6.0,60,0.00,,,0.00,454,Wunderground v.1.15,2013-01-04 17:57:00,
2013-01-04 12:02:00,32.2,19.5,30.17,SW,222,3.0,5.0,59,0.00,,,0.00,457,Wunderground v.1.15,2013-01-04 18:02:00,
2013-01-04 12:07:00,32.6,19.8,30.17,SW,222,5.0,5.0,59,0.00,,,0.00,461,Wunderground v.1.15,2013-01-04 18:07:00,
2013-01-04 12:12:00,33.3,20.5,30.17,SW,222,3.0,4.0,59,0.00,,,0.00,462,Wunderground v.1.15,2013-01-04 18:12:00,
2013-01-04 12:17:00,34.0,21.2,30.17,SW,222,2.0,5.0,59,0.00,,,0.00,464,Wunderground v.1.15,2013-01-04 18:17:00,
2013-01-04 12:22:00,34.2,20.9,30.16,SW,222,2.0,5.0,58,0.00,,,0.00,468,Wunderground v.1.15,2013-01-04 18:22:00,
2013-01-04 12:27:00,35.0,22.5,30.16,SW,222,4.0,5.0,60,0.00,,,0.00,469,Wunderground v.1.15,2013-01-04 18:27:00,
2013-01-04 12:32:00,35.0,21.7,30.16,SW,222,2.0,5.0,58,0.00,,,0.00,469,Wunderground v.1.15,2013-01-04 18:32:00,
2013-01-04 12:37:00,35.1,22.2,30.15,SW,220,3.0,6.0,59,0.00,,,0.00,471,Wunderground v.1.15,2013-01-04 18:37:00,
2013-01-04 12:43:00,35.5,22.2,30.15,SW,215,5.0,6.0,58,0.00,,,0.00,471,Wunderground v.1.15,2013-01-04 18:43:00,
2013-01-04 12:48:00,35.7,21.9,30.15,SSW,213,7.0,7.0,57,0.00,,,0.00,471,Wunderground v.1.15,2013-01-04 18:48:00,
2013-01-04 12:53:00,35.6,21.4,30.15,SW,214,5.0,7.0,56,0.00,,,0.00,471,Wunderground v.1.15,2013-01-04 18:53:00,
2013-01-04 12:58:00,36.2,22.4,30.14,SW,223,5.0,7.0,57,0.00,,,0.00,471,Wunderground v.1.15,2013-01-04 18:58:00,
2013-01-04 13:03:00,36.7,22.5,30.14,SW,221,5.0,7.0,56,0.00,,,0.00,469,Wunderground v.1.15,2013-01-04 19:03:00,
2013-01-04 13:08:00,36.9,23.1,30.14,SSW,209,4.0,7.0,57,0.00,,,0.00,468,Wunderground v.1.15,2013-01-04 19:08:00,
2013-01-04 13:13:00,37.4,23.5,30.13,SSW,209,5.0,5.0,57,0.00,,,0.00,466,Wunderground v.1.15,2013-01-04 19:13:00,
2013-01-04 13:18:00,37.6,22.4,30.13,SSW,211,5.0,6.0,54,0.00,,,0.00,464,Wunderground v.1.15,2013-01-04 19:18:00,
2013-01-04 13:23:00,38.1,22.5,30.13,SSW,205,5.0,7.0,53,0.00,,,0.00,462,Wunderground v.1.15,2013-01-04 19:23:00,
2013-01-04 13:28:00,38.5,21.9,30.13,SW,214,4.0,7.0,51,0.00,,,0.00,459,Wunderground v.1.15,2013-01-04 19:28:00,
2013-01-04 13:33:00,38.7,21.6,30.13,SW,215,6.0,7.0,50,0.00,,,0.00,455,Wunderground v.1.15,2013-01-04 19:33:00,
2013-01-04 13:38:00,38.9,21.8,30.13,SW,218,5.0,7.0,50,0.00,,,0.00,450,Wunderground v.1.15,2013-01-04 19:38:00,
2013-01-04 13:43:00,39.3,22.2,30.13,SW,223,4.0,7.0,50,0.00,,,0.00,446,Wunderground v.1.15,2013-01-04 19:43:00,
2013-01-04 13:48:00,39.9,24.1,30.13,SW,219,5.0,7.0,53,0.00,,,0.00,441,Wunderground v.1.15,2013-01-04 19:48:00,
2013-01-04 13:53:00,40.0,23.8,30.13,SW,218,3.0,6.0,52,0.00,,,0.00,434,Wunderground v.1.15,2013-01-04 19:53:00,
2013-01-04 13:58:00,40.2,24.0,30.13,SW,218,5.0,6.0,52,0.00,,,0.00,429,Wunderground v.1.15,2013-01-04 19:58:00,
2013-01-04 14:03:00,40.3,24.1,30.12,SW,214,4.0,6.0,52,0.00,,,0.00,427,Wunderground v.1.15,2013-01-04 20:03:00,
2013-01-04 14:08:00,40.5,22.8,30.13,SW,221,5.0,6.0,49,0.00,,,0.00,420,Wunderground v.1.15,2013-01-04 20:08:00,
2013-01-04 14:13:00,40.5,25.1,30.13,SSW,204,5.0,7.0,54,0.00,,,0.00,415,Wunderground v.1.15,2013-01-04 20:13:00,
2013-01-04 14:18:00,40.5,24.7,30.13,SSW,205,5.0,7.0,53,0.00,,,0.00,408,Wunderground v.1.15,2013-01-04 20:18:00,
2013-01-04 14:23:00,40.5,24.2,30.12,SSW,203,6.0,7.0,52,0.00,,,0.00,401,Wunderground v.1.15,2013-01-04 20:23:00,
2013-01-04 14:28:00,40.5,23.8,30.12,SSW,203,7.0,7.0,51,0.00,,,0.00,392,Wunderground v.1.15,2013-01-04 20:28:00,
2013-01-04 14:33:00,40.7,24.4,30.12,SSW,202,5.0,7.0,52,0.00,,,0.00,383,Wunderground v.1.15,2013-01-04 20:33:00,
2013-01-04 14:38:00,40.7,24.0,30.12,SSW,200,6.0,8.0,51,0.00,,,0.00,376,Wunderground v.1.15,2013-01-04 20:38:00,
2013-01-04 14:43:00,41.0,24.2,30.12,SSW,202,3.0,7.0,51,0.00,,,0.00,366,Wunderground v.1.15,2013-01-04 20:43:00,
2013-01-04 14:48:00,41.3,24.5,30.12,SSW,201,6.0,7.0,51,0.00,,,0.00,360,Wunderground v.1.15,2013-01-04 20:48:00,
2013-01-04 14:53:00,41.0,25.2,30.12,SSW,201,7.0,7.0,53,0.00,,,0.00,350,Wunderground v.1.15,2013-01-04 20:53:00,
2013-01-04 14:58:00,40.8,25.0,30.12,SSW,202,6.0,7.0,53,0.00,,,0.00,341,Wunderground v.1.15,2013-01-04 20:58:00,
2013-01-04 15:03:00,40.9,25.5,30.12,SSW,202,7.0,7.0,54,0.00,,,0.00,330,Wunderground v.1.15,2013-01-04 21:03:00,
2013-01-04 15:08:00,40.7,25.3,30.12,SSW,202,5.0,7.0,54,0.00,,,0.00,322,Wunderground v.1.15,2013-01-04 21:08:00,
2013-01-04 15:13:00,40.7,25.8,30.12,SSW,200,5.0,6.0,55,0.00,,,0.00,309,Wunderground v.1.15,2013-01-04 21:13:00,
2013-01-04 15:18:00,40.8,25.9,30.11,SSW,200,5.0,6.0,55,0.00,,,0.00,299,Wunderground v.1.15,2013-01-04 21:18:00,
2013-01-04 15:23:00,40.7,25.3,30.11,SSW,203,4.0,7.0,54,0.00,,,0.00,290,Wunderground v.1.15,2013-01-04 21:23:00,
2013-01-04 15:28:00,40.7,25.3,30.11,SSW,202,4.0,7.0,54,0.00,,,0.00,278,Wunderground v.1.15,2013-01-04 21:28:00,
2013-01-04 15:33:00,40.9,26.0,30.11,SSW,202,4.0,6.0,55,0.00,,,0.00,262,Wunderground v.1.15,2013-01-04 21:33:00,
2013-01-04 15:38:00,40.6,25.7,30.11,SSW,202,5.0,6.0,55,0.00,,,0.00,248,Wunderground v.1.15,2013-01-04 21:38:00,
2013-01-04 15:43:00,40.6,25.7,30.11,SSW,202,5.0,6.0,55,0.00,,,0.00,232,Wunderground v.1.15,2013-01-04 21:43:00,
2013-01-04 15:48:00,40.2,25.7,30.11,SSW,201,5.0,7.0,56,0.00,,,0.00,216,Wunderground v.1.15,2013-01-04 21:48:00,
2013-01-04 15:53:00,40.0,25.6,30.11,SSW,201,4.0,6.0,56,0.00,,,0.00,200,Wunderground v.1.15,2013-01-04 21:53:00,
2013-01-04 15:58:00,40.2,25.7,30.11,SSW,201,3.0,6.0,56,0.00,,,0.00,183,Wunderground v.1.15,2013-01-04 21:58:00,
2013-01-04 16:03:00,40.4,26.4,30.11,SSW,201,3.0,4.0,57,0.00,,,0.00,165,Wunderground v.1.15,2013-01-04 22:03:00,
2013-01-04 16:08:00,39.6,26.4,30.11,SSW,195,5.0,7.0,59,0.00,,,0.00,151,Wunderground v.1.15,2013-01-04 22:08:00,
2013-01-04 16:13:00,38.9,26.2,30.11,SSW,192,7.0,7.0,60,0.00,,,0.00,134,Wunderground v.1.15,2013-01-04 22:13:00,
2013-01-04 16:18:00,38.0,26.1,30.11,South,176,6.0,11.0,62,0.00,,,0.00,120,Wunderground v.1.15,2013-01-04 22:18:00,
2013-01-04 16:23:00,37.8,26.7,30.11,South,178,5.0,7.0,64,0.00,,,0.00,104,Wunderground v.1.15,2013-01-04 22:23:00,
2013-01-04 16:28:00,37.3,26.6,30.11,South,179,4.0,7.0,65,0.00,,,0.00,88,Wunderground v.1.15,2013-01-04 22:28:00,
2013-01-04 16:34:00,36.8,26.1,30.11,South,179,3.0,6.0,65,0.00,,,0.00,72,Wunderground v.1.15,2013-01-04 22:34:00,
2013-01-04 16:39:00,36.2,25.9,30.11,South,184,5.0,7.0,66,0.00,,,0.00,60,Wunderground v.1.15,2013-01-04 22:39:00,
2013-01-04 16:44:00,35.5,25.3,30.11,South,184,5.0,6.0,66,0.00,,,0.00,46,Wunderground v.1.15,2013-01-04 22:44:00,
2013-01-04 16:49:00,35.0,25.1,30.11,South,184,5.0,7.0,67,0.00,,,0.00,35,Wunderground v.1.15,2013-01-04 22:49:00,
2013-01-04 16:54:00,34.4,24.9,30.11,South,184,6.0,8.0,68,0.00,,,0.00,14,Wunderground v.1.15,2013-01-04 22:54:00,
2013-01-04 16:59:00,33.8,24.7,30.10,South,184,6.0,8.0,69,0.00,,,0.00,12,Wunderground v.1.15,2013-01-04 22:59:00,
2013-01-04 17:04:00,33.2,24.5,30.10,South,184,4.0,6.0,70,0.00,,,0.00,11,Wunderground v.1.15,2013-01-04 23:04:00,
2013-01-04 17:09:00,32.9,24.2,30.10,South,184,4.0,6.0,70,0.00,,,0.00,7,Wunderground v.1.15,2013-01-04 23:09:00,
2013-01-04 17:14:00,32.6,24.2,30.10,South,184,3.0,5.0,71,0.00,,,0.00,5,Wunderground v.1.15,2013-01-04 23:14:00,
2013-01-04 17:19:00,32.6,24.2,30.10,South,184,2.0,5.0,71,0.00,,,0.00,0,Wunderground v.1.15,2013-01-04 23:19:00,
2013-01-04 17:24:00,32.6,24.2,30.09,South,184,0.0,3.0,71,0.00,,,0.00,0,Wunderground v.1.15,2013-01-04 23:24:00,
2013-01-04 17:29:00,32.4,24.0,30.09,South,184,1.0,3.0,71,0.00,,,0.00,0,Wunderground v.1.15,2013-01-04 23:29:00,
2013-01-04 17:34:00,31.9,23.6,30.09,South,184,0.0,1.0,71,0.00,,,0.00,0,Wunderground v.1.15,2013-01-04 23:34:00,
2013-01-04 17:39:00,31.5,23.5,30.09,South,184,0.0,1.0,72,0.00,,,0.00,0,Wunderground v.1.15,2013-01-04 23:39:00,
2013-01-04 17:44:00,31.0,23.0,30.09,South,184,0.0,0.0,72,0.00,,,0.00,0,Wunderground v.1.15,2013-01-04 23:44:00,
2013-01-04 17:49:00,30.6,23.0,30.09,South,184,0.0,0.0,73,0.00,,,0.00,0,Wunderground v.1.15,2013-01-04 23:49:00,
2013-01-04 17:54:00,30.0,22.4,30.09,South,184,0.0,0.0,73,0.00,,,0.00,0,Wunderground v.1.15,2013-01-04 23:54:00,
2013-01-04 17:59:00,29.5,21.9,30.09,South,184,0.0,0.0,73,0.00,,,0.00,0,Wunderground v.1.15,2013-01-04 23:59:00,
2013-01-04 18:04:00,29.0,21.7,30.09,South,184,0.0,0.0,74,0.00,,,0.00,0,Wunderground v.1.15,2013-01-05 00:04:00,
2013-01-04 18:09:00,28.2,20.7,30.09,South,184,0.0,0.0,73,0.00,,,0.00,0,Wunderground v.1.15,2013-01-05 00:09:00,
2013-01-04 18:14:00,26.9,19.7,30.08,South,184,0.0,0.0,74,0.00,,,0.00,0,Wunderground v.1.15,2013-01-05 00:14:00,
2013-01-04 18:19:00,26.5,20.0,30.09,South,184,1.0,3.0,76,0.00,,,0.00,0,Wunderground v.1.15,2013-01-05 00:19:00,
2013-01-04 18:24:00,25.6,19.4,30.08,South,184,0.0,2.0,77,0.00,,,0.00,0,Wunderground v.1.15,2013-01-05 00:24:00,
2013-01-04 18:29:00,25.5,19.6,30.08,South,184,0.0,2.0,78,0.00,,,0.00,0,Wunderground v.1.15,2013-01-05 00:29:00,
2013-01-04 18:34:00,25.1,19.2,30.08,South,184,0.0,1.0,78,0.00,,,0.00,0,Wunderground v.1.15,2013-01-05 00:34:00,
2013-01-04 18:39:00,25.0,19.4,30.08,South,184,0.0,1.0,79,0.00,,,0.00,0,Wunderground v.1.15,2013-01-05 00:39:00,
2013-01-04 18:44:00,24.8,19.5,30.08,South,184,0.0,0.0,80,0.00,,,0.00,0,Wunderground v.1.15,2013-01-05 00:44:00,
2013-01-04 18:49:00,23.6,17.7,30.09,South,184,2.0,2.0,78,0.00,,,0.00,0,Wunderground v.1.15,2013-01-05 00:49:00,
2013-01-04 18:54:00,22.6,17.4,30.09,South,184,1.0,2.0,80,0.00,,,0.00,0,Wunderground v.1.15,2013-01-05 00:54:00,
2013-01-04 18:59:00,22.6,17.6,30.09,South,184,2.0,3.0,81,0.00,,,0.00,0,Wunderground v.1.15,2013-01-05 00:59:00,
2013-01-04 19:04:00,22.6,17.9,30.09,South,184,5.0,6.0,82,0.00,,,0.00,0,Wunderground v.1.15,2013-01-05 01:04:00,
2013-01-04 19:09:00,24.1,20.0,30.09,South,180,10.0,11.0,84,0.00,,,0.00,0,Wunderground v.1.15,2013-01-05 01:09:00,
2013-01-04 19:14:00,25.9,21.4,30.09,South,184,7.0,9.0,83,0.00,,,0.00,0,Wunderground v.1.15,2013-01-05 01:14:00,
2013-01-04 19:19:00,26.9,22.1,30.09,South,184,7.0,10.0,82,0.00,,,0.00,0,Wunderground v.1.15,2013-01-05 01:19:00,
2013-01-04 19:24:00,27.0,21.7,30.09,South,185,6.0,9.0,80,0.00,,,0.00,0,Wunderground v.1.15,2013-01-05 01:24:00,
2013-01-04 19:29:00,27.4,21.7,30.09,South,188,9.0,13.0,79,0.00,,,0.00,0,Wunderground v.1.15,2013-01-05 01:29:00,
2013-01-04 19:34:00,26.8,20.6,30.09,SSW,192,5.0,9.0,77,0.00,,,0.00,0,Wunderground v.1.15,2013-01-05 01:34:00,
2013-01-04 19:39:00,25.8,19.6,30.09,SSW,194,4.0,9.0,77,0.00,,,0.00,0,Wunderground v.1.15,2013-01-05 01:39:00,
2013-01-04 19:44:00,25.2,19.3,30.09,SSW,196,7.0,8.0,78,0.00,,,0.00,0,Wunderground v.1.15,2013-01-05 01:44:00,
2013-01-04 19:49:00,24.2,18.6,30.10,SSW,194,7.0,9.0,79,0.00,,,0.00,0,Wunderground v.1.15,2013-01-05 01:49:00,
2013-01-04 19:54:00,23.7,18.1,30.10,SSW,192,6.0,8.0,79,0.00,,,0.00,0,Wunderground v.1.15,2013-01-05 01:54:00,
2013-01-04 19:59:00,23.1,17.8,30.09,South,190,6.0,9.0,80,0.00,,,0.00,0,Wunderground v.1.15,2013-01-05 01:59:00,
2013-01-04 20:04:00,23.4,18.4,30.09,South,190,9.0,9.0,81,0.00,,,0.00,0,Wunderground v.1.15,2013-01-05 02:04:00,
2013-01-04 20:09:00,22.9,17.9,30.09,SSW,192,6.0,9.0,81,0.00,,,0.00,0,Wunderground v.1.15,2013-01-05 02:09:00,
2013-01-04 20:14:00,22.5,17.5,30.09,SSW,193,5.0,7.0,81,0.00,,,0.00,0,Wunderground v.1.15,2013-01-05 02:14:00,
2013-01-04 20:19:00,21.8,16.9,30.09,SSW,193,5.0,7.0,81,0.00,,,0.00,0,Wunderground v.1.15,2013-01-05 02:19:00,
2013-01-04 20:24:00,21.0,16.1,30.08,SSW,193,6.0,7.0,81,0.00,,,0.00,0,Wunderground v.1.15,2013-01-05 02:24:00,
2013-01-04 20:30:00,21.6,17.2,30.08,SSW,193,2.0,5.0,83,0.00,,,0.00,0,Wunderground v.1.15,2013-01-05 02:30:00,
2013-01-04 20:35:00,21.9,17.5,30.08,SSW,193,4.0,5.0,83,0.00,,,0.00,0,Wunderground v.1.15,2013-01-05 02:35:00,
2013-01-04 20:40:00,21.3,16.7,30.08,SSW,193,3.0,3.0,82,0.00,,,0.00,0,Wunderground v.1.15,2013-01-05 02:40:00,
2013-01-04 20:45:00,20.8,16.5,30.08,SSW,193,3.0,5.0,83,0.00,,,0.00,0,Wunderground v.1.15,2013-01-05 02:45:00,
2013-01-04 20:50:00,20.3,16.0,30.08,SSW,193,4.0,4.0,83,0.00,,,0.00,0,Wunderground v.1.15,2013-01-05 02:50:00,
2013-01-04 20:55:00,20.1,15.8,30.08,SSW,194,5.0,6.0,83,0.00,,,0.00,0,Wunderground v.1.15,2013-01-05 02:55:00,
2013-01-04 21:00:00,20.2,16.1,30.08,SSW,194,5.0,5.0,84,0.00,,,0.00,0,Wunderground v.1.15,2013-01-05 03:00:00,
2013-01-04 21:05:00,20.5,16.4,30.07,SSW,194,5.0,6.0,84,0.00,,,0.00,0,Wunderground v.1.15,2013-01-05 03:05:00,
2013-01-04 21:10:00,20.1,15.8,30.07,SSW,195,1.0,3.0,83,0.00,,,0.00,0,Wunderground v.1.15,2013-01-05 03:10:00,
2013-01-04 21:15:00,19.5,15.2,30.07,SSW,195,0.0,3.0,83,0.00,,,0.00,0,Wunderground v.1.15,2013-01-05 03:15:00,
2013-01-04 21:20:00,18.8,14.5,30.06,SSW,195,0.0,0.0,83,0.00,,,0.00,0,Wunderground v.1.15,2013-01-05 03:20:00,
2013-01-04 21:25:00,18.4,14.4,30.06,SSW,195,1.0,2.0,84,0.00,,,0.00,0,Wunderground v.1.15,2013-01-05 03:25:00,
2013-01-04 21:30:00,18.4,14.4,30.06,SSW,195,0.0,1.0,84,0.00,,,0.00,0,Wunderground v.1.15,2013-01-05 03:30:00,
2013-01-04 21:35:00,18.4,14.4,30.06,SSW,195,2.0,2.0,84,0.00,,,0.00,0,Wunderground v.1.15,2013-01-05 03:35:00,
2013-01-04 21:40:00,17.0,12.7,30.06,SSW,195,3.0,4.0,83,0.00,,,0.00,0,Wunderground v.1.15,2013-01-05 03:40:00,
2013-01-04 21:45:00,16.0,12.0,30.06,SSW,195,0.0,4.0,84,0.00,,,0.00,0,Wunderground v.1.15,2013-01-05 03:45:00,
2013-01-04 21:50:00,16.4,12.7,30.06,SSW,195,2.0,2.0,85,0.00,,,0.00,0,Wunderground v.1.15,2013-01-05 03:50:00,
2013-01-04 21:55:00,15.8,12.1,30.06,SSW,195,4.0,6.0,85,0.00,,,0.00,0,Wunderground v.1.15,2013-01-05 03:55:00,
2013-01-04 22:00:00,15.9,12.5,30.06,SSW,195,2.0,4.0,86,0.00,,,0.00,0,Wunderground v.1.15,2013-01-05 04:00:00,
2013-01-04 22:05:00,16.0,12.6,30.06,SSW,195,2.0,5.0,86,0.00,,,0.00,0,Wunderground v.1.15,2013-01-05 04:05:00,
2013-01-04 22:10:00,15.9,12.5,30.06,SSW,195,3.0,3.0,86,0.00,,,0.00,0,Wunderground v.1.15,2013-01-05 04:10:00,
2013-01-04 22:15:00,16.6,13.1,30.05,SSW,195,3.0,4.0,86,0.00,,,0.00,0,Wunderground v.1.15,2013-01-05 04:15:00,
2013-01-04 22:20:00,16.6,13.1,30.05,SSW,195,1.0,3.0,86,0.00,,,0.00,0,Wunderground v.1.15,2013-01-05 04:20:00,
2013-01-04 22:25:00,16.1,12.7,30.05,SSW,195,2.0,3.0,86,0.00,,,0.00,0,Wunderground v.1.15,2013-01-05 04:25:00,
2013-01-04 22:30:00,15.5,12.1,30.05,SSW,195,5.0,5.0,86,0.00,,,0.00,0,Wunderground v.1.15,2013-01-05 04:30:00,
2013-01-04 22:35:00,15.1,11.7,30.05,SSW,195,4.0,6.0,86,0.00,,,0.00,0,Wunderground v.1.15,2013-01-05 04:35:00,
2013-01-04 22:40:00,15.6,12.4,30.05,SSW,195,1.0,4.0,87,0.00,,,0.00,0,Wunderground v.1.15,2013-01-05 04:40:00,
2013-01-04 22:45:00,15.2,12.0,30.04,SSW,195,0.0,4.0,87,0.00,,,0.00,0,Wunderground v.1.15,2013-01-05 04:45:00,
2013-01-04 22:50:00,14.9,11.7,30.05,SSW,195,1.0,1.0,87,0.00,,,0.00,0,Wunderground v.1.15,2013-01-05 04:50:00,
2013-01-04 22:55:00,15.0,11.8,30.04,SSW,195,1.0,2.0,87,0.00,,,0.00,0,Wunderground v.1.15,2013-01-05 04:55:00,
2013-01-04 23:00:00,14.9,11.7,30.04,SSW,195,2.0,2.0,87,0.00,,,0.00,0,Wunderground v.1.15,2013-01-05 05:00:00,
2013-01-04 23:01:00,15.0,11.8,30.04,SSW,195,2.0,3.0,87,0.00,,,0.00,0,Wunderground v.1.15,2013-01-05 05:01:00,
2013-01-04 23:06:00,15.3,12.1,30.04,SSW,195,2.0,3.0,87,0.00,,,0.00,0,Wunderground v.1.15,2013-01-05 05:06:00,
2013-01-04 23:11:00,16.1,13.2,30.04,SSW,195,1.0,2.0,88,0.00,,,0.00,0,Wunderground v.1.15,2013-01-05 05:11:00,
2013-01-04 23:16:00,15.9,12.7,30.03,SSW,195,1.0,3.0,87,0.00,,,0.00,0,Wunderground v.1.15,2013-01-05 05:16:00,
2013-01-04 23:21:00,15.7,12.5,30.04,SSW,195,2.0,3.0,87,0.00,,,0.00,0,Wunderground v.1.15,2013-01-05 05:21:00,
2013-01-04 23:26:00,14.8,11.6,30.04,SSW,195,5.0,7.0,87,0.00,,,0.00,0,Wunderground v.1.15,2013-01-05 05:26:00,
2013-01-04 23:31:00,14.2,11.0,30.04,SSW,195,2.0,4.0,87,0.00,,,0.00,0,Wunderground v.1.15,2013-01-05 05:31:00,
2013-01-04 23:36:00,15.9,13.0,30.04,SSW,195,2.0,7.0,88,0.00,,,0.00,0,Wunderground v.1.15,2013-01-05 05:36:00,
2013-01-04 23:41:00,16.1,13.2,30.04,SSW,195,3.0,4.0,88,0.00,,,0.00,0,Wunderground v.1.15,2013-01-05 05:41:00,
2013-01-04 23:46:00,16.2,13.3,30.04,SSW,195,3.0,5.0,88,0.00,,,0.00,0,Wunderground v.1.15,2013-01-05 05:46:00,
2013-01-04 23:51:00,16.4,13.5,30.04,SSW,196,4.0,4.0,88,0.00,,,0.00,0,Wunderground v.1.15,2013-01-05 05:51:00,
2013-01-04 23:56:00,15.9,12.7,30.03,SSW,196,3.0,5.0,87,0.00,,,0.00,0,Wunderground v.1.15,2013-01-05 05:56:00,